createdAt,value
2019-03-03T00:00:48.582Z,38.87
2019-03-03T00:03:16.669Z,42.63
2019-03-03T00:05:44.806Z,38.03
2019-03-03T00:08:12.811Z,39.33
2019-03-03T00:10:40.830Z,38.70
2019-03-03T00:13:08.874Z,39.27
2019-03-03T00:15:36.951Z,36.93
2019-03-03T00:18:05.019Z,48.47
2019-03-03T00:20:32.994Z,38.90
2019-03-03T00:23:01.024Z,40.87
2019-03-03T00:25:29.444Z,38.17
2019-03-03T00:27:57.626Z,41.40
2019-03-03T00:30:25.609Z,38.10
2019-03-03T00:32:53.695Z,43.80
2019-03-03T00:35:21.828Z,40.33
2019-03-03T00:38:00.431Z,42.10
2019-03-03T00:40:59.604Z,41.30
2019-03-03T00:43:49.416Z,41.63
2019-03-03T00:46:42.162Z,39.90
2019-03-03T00:49:30.020Z,37.40
2019-03-03T00:52:05.750Z,38.57
2019-03-03T00:54:51.372Z,39.27
2019-03-03T00:57:26.714Z,42.00
2019-03-03T01:00:04.723Z,41.97
2019-03-03T01:03:04.006Z,40.60
2019-03-03T01:05:49.615Z,44.43
2019-03-03T01:08:35.813Z,44.67
2019-03-03T01:11:28.626Z,49.13
2019-03-03T01:14:21.690Z,45.47
2019-03-03T01:17:20.990Z,47.50
2019-03-03T01:20:08.022Z,40.83
2019-03-03T01:22:48.606Z,45.07
2019-03-03T01:25:16.736Z,43.63
2019-03-03T01:27:44.709Z,44.63
2019-03-03T01:30:13.297Z,46.70
2019-03-03T01:32:41.625Z,49.77
2019-03-03T01:35:09.706Z,49.67
2019-03-03T01:37:37.803Z,52.20
2019-03-03T01:40:06.100Z,55.40
2019-03-03T01:42:34.224Z,55.70
2019-03-03T01:45:02.249Z,51.83
2019-03-03T01:47:30.317Z,59.30
2019-03-03T01:49:58.335Z,50.13
2019-03-03T01:52:26.463Z,57.17
2019-03-03T01:54:54.574Z,52.37
2019-03-03T01:57:22.623Z,53.70
2019-03-03T01:59:50.610Z,58.23
2019-03-03T02:02:18.663Z,55.30
2019-03-03T02:04:46.795Z,53.67
2019-03-03T02:07:14.811Z,58.70
2019-03-03T02:09:42.799Z,55.30
2019-03-03T02:12:10.800Z,55.57
2019-03-03T02:14:38.795Z,58.87
2019-03-03T02:17:08.399Z,61.30
2019-03-03T02:19:36.533Z,56.20
2019-03-03T02:22:04.555Z,62.83
2019-03-03T02:24:32.668Z,60.13
2019-03-03T02:27:00.807Z,65.80
2019-03-03T02:29:28.871Z,63.13
2019-03-03T02:31:56.935Z,59.80
2019-03-03T02:34:24.991Z,62.53
2019-03-03T02:36:53.087Z,64.47
2019-03-03T02:39:21.256Z,67.50
2019-03-03T02:41:49.249Z,66.40
2019-03-03T02:44:17.478Z,61.10
2019-03-03T02:46:45.412Z,59.33
2019-03-03T02:49:13.444Z,61.77
2019-03-03T02:51:41.485Z,62.60
2019-03-03T02:54:12.269Z,59.27
2019-03-03T02:56:40.262Z,59.17
2019-03-03T02:59:08.301Z,62.47
2019-03-03T03:01:43.911Z,62.77
2019-03-03T03:04:11.945Z,58.50
2019-03-03T03:06:58.981Z,55.00
2019-03-03T03:09:29.957Z,71.33
2019-03-03T03:12:03.394Z,61.33
2019-03-03T03:14:36.521Z,61.47
2019-03-03T03:17:14.468Z,53.03
2019-03-03T03:20:07.315Z,53.00
2019-03-03T03:22:44.973Z,60.73
2019-03-03T03:25:31.956Z,62.50
2019-03-03T03:28:19.046Z,61.10
2019-03-03T03:31:04.826Z,52.40
2019-03-03T03:33:51.861Z,61.23
2019-03-03T03:36:32.587Z,58.77
2019-03-03T03:39:34.801Z,61.63
2019-03-03T03:42:27.766Z,54.07
2019-03-03T03:45:14.376Z,56.83
2019-03-03T03:48:06.068Z,59.27
2019-03-03T03:50:51.554Z,53.80
2019-03-03T03:53:35.893Z,55.10
2019-03-03T03:56:28.194Z,50.50
2019-03-03T03:59:33.382Z,49.87
2019-03-03T04:02:19.170Z,46.70
2019-03-03T04:05:24.066Z,46.87
2019-03-03T04:07:59.309Z,42.93
2019-03-03T04:10:33.162Z,45.53
2019-03-03T04:13:20.143Z,41.83
2019-03-03T04:16:12.332Z,39.23
2019-03-03T04:19:02.379Z,40.87
2019-03-03T04:21:45.233Z,48.30
2019-03-03T04:24:36.989Z,40.00
2019-03-03T04:27:27.047Z,36.20
2019-03-03T04:30:09.045Z,43.17
2019-03-03T04:32:56.087Z,36.13
2019-03-03T04:35:41.234Z,33.63
2019-03-03T04:38:42.506Z,40.93
2019-03-03T04:41:28.176Z,36.80
2019-03-03T04:44:19.293Z,33.37
2019-03-03T04:46:55.109Z,30.73
2019-03-03T04:49:39.779Z,29.37
2019-03-03T04:52:23.401Z,33.43
2019-03-03T04:55:11.486Z,28.73
2019-03-03T05:01:01.858Z,33.57
2019-03-03T05:03:50.199Z,26.40
2019-03-03T05:06:30.787Z,28.33
2019-03-03T05:09:17.723Z,25.60
2019-03-03T05:12:24.833Z,25.03
2019-03-03T05:14:54.524Z,21.00
2019-03-03T05:17:41.584Z,28.67
2019-03-03T05:20:09.851Z,25.30
2019-03-03T05:22:38.455Z,23.83
2019-03-03T05:25:06.507Z,22.60
2019-03-03T05:27:34.606Z,23.60
2019-03-03T05:30:02.597Z,22.43
2019-03-03T05:32:30.627Z,23.07
2019-03-03T05:34:58.650Z,21.27
2019-03-03T05:37:26.664Z,24.20
2019-03-03T05:39:54.718Z,22.30
2019-03-03T05:42:24.810Z,19.53
2019-03-03T05:44:52.788Z,19.50
2019-03-03T05:47:20.889Z,20.17
2019-03-03T05:49:48.992Z,21.60
2019-03-03T05:52:19.063Z,19.17
2019-03-03T05:54:47.083Z,21.37
2019-03-03T05:57:15.108Z,22.07
2019-03-03T05:59:43.150Z,21.23
2019-03-03T06:02:11.208Z,19.10
2019-03-03T06:04:39.188Z,19.27
2019-03-03T06:07:08.479Z,16.90
2019-03-03T06:09:44.558Z,17.03
2019-03-03T06:12:12.628Z,19.17
2019-03-03T06:14:40.669Z,16.43
2019-03-03T06:17:08.678Z,16.40
2019-03-03T06:19:36.746Z,15.47
2019-03-03T06:22:04.798Z,13.07
2019-03-03T06:24:32.815Z,17.00
2019-03-03T06:27:01.148Z,14.07
2019-03-03T06:29:29.144Z,19.43
2019-03-03T06:31:57.287Z,14.17
2019-03-03T06:34:25.616Z,12.47
2019-03-03T06:36:53.596Z,13.07
2019-03-03T06:39:21.576Z,13.93
2019-03-03T06:41:49.569Z,13.30
2019-03-03T06:44:17.564Z,9.93
2019-03-03T06:46:45.597Z,12.63
2019-03-03T06:49:13.575Z,10.73
2019-03-03T06:51:42.636Z,13.33
2019-03-03T06:54:10.660Z,10.30
2019-03-03T06:56:38.664Z,10.37
2019-03-03T06:59:06.669Z,13.67
2019-03-03T07:01:34.668Z,12.33
2019-03-03T07:04:02.655Z,12.23
2019-03-03T07:06:30.685Z,10.07
2019-03-03T07:08:58.713Z,10.63
2019-03-03T07:11:26.774Z,10.17
2019-03-03T07:13:55.665Z,9.73
2019-03-03T07:16:26.413Z,9.33
2019-03-03T07:18:54.553Z,11.27
2019-03-03T07:21:22.627Z,10.10
2019-03-03T07:23:50.772Z,11.73
2019-03-03T07:26:18.774Z,10.60
2019-03-03T07:28:47.883Z,8.63
2019-03-03T07:31:15.934Z,8.33
2019-03-03T07:33:47.635Z,12.10
2019-03-03T07:36:15.649Z,8.30
2019-03-03T07:38:43.721Z,8.80
2019-03-03T07:41:11.766Z,7.60
2019-03-03T07:43:39.801Z,8.60
2019-03-03T07:46:08.965Z,9.57
2019-03-03T07:48:38.041Z,9.53
2019-03-03T07:51:06.019Z,10.23
2019-03-03T07:53:34.114Z,10.07
2019-03-03T07:56:02.169Z,9.30
2019-03-03T07:58:30.190Z,8.43
2019-03-03T08:00:59.120Z,11.83
2019-03-03T08:03:27.730Z,8.07
2019-03-03T08:05:56.111Z,13.77
2019-03-03T08:08:24.137Z,9.27
2019-03-03T08:10:52.693Z,6.20
2019-03-03T08:13:20.724Z,9.40
2019-03-03T08:15:48.771Z,9.10
2019-03-03T08:18:16.760Z,9.87
2019-03-03T08:20:44.804Z,7.90
2019-03-03T08:23:12.897Z,8.80
2019-03-03T08:25:41.060Z,7.20
2019-03-03T08:28:09.062Z,9.53
2019-03-03T08:30:37.078Z,7.97
2019-03-03T08:33:05.185Z,9.37
2019-03-03T08:35:33.589Z,11.67
2019-03-03T08:38:02.581Z,9.50
2019-03-03T08:40:30.668Z,8.43
2019-03-03T08:43:04.798Z,7.67
2019-03-03T08:46:03.752Z,10.13
2019-03-03T08:49:02.929Z,7.13
2019-03-03T08:51:53.164Z,10.40
2019-03-03T08:54:29.013Z,9.63
2019-03-03T08:57:26.178Z,8.63
2019-03-03T09:00:04.453Z,14.60
2019-03-03T09:02:51.707Z,9.47
2019-03-03T09:05:50.925Z,12.10
2019-03-03T09:08:33.537Z,13.33
2019-03-03T09:11:33.067Z,7.40
2019-03-03T09:14:08.206Z,10.73
2019-03-03T09:16:48.458Z,11.93
2019-03-03T09:19:37.526Z,8.77
2019-03-03T09:22:13.160Z,11.13
2019-03-03T09:24:51.339Z,9.43
2019-03-03T09:27:57.256Z,11.23
2019-03-03T09:30:56.558Z,7.13
2019-03-03T09:33:41.760Z,9.07
2019-03-03T09:36:33.302Z,9.20
2019-03-03T09:39:35.399Z,9.93
2019-03-03T09:42:25.488Z,7.73
2019-03-03T09:45:09.572Z,10.67
2019-03-03T09:47:55.727Z,9.93
2019-03-03T09:50:45.309Z,8.67
2019-03-03T09:53:32.463Z,8.73
2019-03-03T09:56:21.594Z,10.73
2019-03-03T09:59:09.507Z,9.40
2019-03-03T10:01:55.238Z,6.97
2019-03-03T10:04:35.418Z,9.87
2019-03-03T10:07:22.464Z,7.53
2019-03-03T10:09:53.937Z,7.00
2019-03-03T10:12:37.503Z,5.70
2019-03-03T10:15:39.551Z,8.80
2019-03-03T10:18:27.552Z,14.60
2019-03-03T10:21:03.879Z,9.57
2019-03-03T10:24:00.151Z,8.60
2019-03-03T10:26:45.537Z,9.63
2019-03-03T10:29:30.379Z,4.83
2019-03-03T10:32:13.935Z,8.93
2019-03-03T10:35:01.004Z,7.63
2019-03-03T10:37:50.768Z,12.60
2019-03-03T10:40:56.117Z,9.53
2019-03-03T10:43:52.120Z,9.53
2019-03-03T10:46:42.196Z,9.57
2019-03-03T10:49:15.626Z,11.17
2019-03-03T10:52:08.947Z,12.90
2019-03-03T10:54:46.045Z,12.60
2019-03-03T10:57:42.163Z,7.70
2019-03-03T11:00:33.236Z,12.50
2019-03-03T11:03:26.314Z,14.03
2019-03-03T11:06:13.218Z,15.13
2019-03-03T11:09:06.335Z,11.97
2019-03-03T11:11:43.004Z,9.43
2019-03-03T11:14:33.220Z,15.93
2019-03-03T11:17:19.628Z,9.97
2019-03-03T11:20:05.653Z,11.63
2019-03-03T11:22:44.327Z,7.60
2019-03-03T11:25:46.495Z,10.90
2019-03-03T11:28:30.244Z,8.23
2019-03-03T11:31:05.040Z,8.63
2019-03-03T11:33:52.056Z,8.47
2019-03-03T11:36:45.483Z,9.57
2019-03-03T11:39:28.581Z,10.40
2019-03-03T11:42:22.469Z,6.30
2019-03-03T11:45:06.376Z,8.60
2019-03-03T11:47:51.706Z,13.83
2019-03-03T11:53:27.918Z,14.20
2019-03-03T11:56:03.624Z,8.57
2019-03-03T11:58:43.214Z,10.88
2019-03-03T12:01:40.094Z,10.30
2019-03-03T12:04:28.165Z,13.77
2019-03-03T12:07:07.357Z,7.37
2019-03-03T12:09:53.225Z,12.37
2019-03-03T12:12:33.156Z,9.37
2019-03-03T12:15:26.614Z,12.77
2019-03-03T12:18:10.237Z,9.63
2019-03-03T12:20:57.378Z,13.23
2019-03-03T12:23:48.114Z,10.60
2019-03-03T12:26:32.450Z,7.60
2019-03-03T12:29:38.011Z,9.07
2019-03-03T12:32:34.689Z,9.53
2019-03-03T12:35:25.307Z,9.97
2019-03-03T12:38:18.828Z,8.37
2019-03-03T12:41:12.252Z,11.40
2019-03-03T12:43:48.023Z,10.53
2019-03-03T12:46:25.250Z,10.87
2019-03-03T12:49:12.241Z,11.97
2019-03-03T12:51:57.831Z,12.40
2019-03-03T12:54:47.786Z,10.13
2019-03-03T12:57:34.070Z,7.47
2019-03-03T13:00:27.243Z,12.90
2019-03-03T13:03:20.470Z,13.13
2019-03-03T13:06:24.344Z,9.57
2019-03-03T13:09:14.486Z,7.40
2019-03-03T13:12:01.684Z,8.00
2019-03-03T13:14:47.049Z,9.90
2019-03-03T13:17:24.113Z,9.97
2019-03-03T13:20:19.737Z,10.57
2019-03-03T13:23:09.785Z,8.70
2019-03-03T13:25:56.770Z,9.33
2019-03-03T13:28:41.223Z,11.47
2019-03-03T13:31:37.776Z,10.60
2019-03-03T13:34:27.818Z,7.33
2019-03-03T13:37:13.502Z,8.70
2019-03-03T13:39:59.093Z,9.97
2019-03-03T13:42:42.904Z,13.33
2019-03-03T13:45:11.326Z,7.73
2019-03-03T13:47:40.555Z,9.80
2019-03-03T13:50:11.357Z,11.97
2019-03-03T13:52:40.393Z,10.60
2019-03-03T13:55:09.126Z,8.37
2019-03-03T13:57:37.131Z,6.30
2019-03-03T14:00:05.269Z,10.33
2019-03-03T14:02:33.321Z,10.80
2019-03-03T14:05:01.567Z,8.77
2019-03-03T14:07:32.071Z,9.57
2019-03-03T14:09:59.877Z,7.73
2019-03-03T14:12:27.891Z,6.10
2019-03-03T14:14:55.942Z,9.10
2019-03-03T14:17:24.180Z,8.17
2019-03-03T14:19:52.209Z,8.03
2019-03-03T14:22:20.271Z,8.97
2019-03-03T14:24:48.384Z,11.43
2019-03-03T14:27:16.589Z,9.83
2019-03-03T14:29:44.607Z,13.33
2019-03-03T14:32:15.178Z,9.13
2019-03-03T14:34:43.326Z,10.00
2019-03-03T14:37:11.935Z,15.70
2019-03-03T14:39:40.597Z,10.13
2019-03-03T14:42:11.113Z,7.60
2019-03-03T14:44:40.326Z,10.43
2019-03-03T14:47:08.340Z,12.27
2019-03-03T14:49:36.440Z,11.30
2019-03-03T14:52:04.539Z,12.03
2019-03-03T14:54:32.585Z,11.73
2019-03-03T14:57:00.628Z,11.07
2019-03-03T15:02:39.742Z,8.97
2019-03-03T15:05:07.847Z,9.43
2019-03-03T15:07:35.922Z,10.60
2019-03-03T15:10:03.994Z,9.17
2019-03-03T15:12:32.180Z,10.20
2019-03-03T15:15:00.315Z,12.43
2019-03-03T15:17:28.537Z,13.80
2019-03-03T15:19:56.618Z,13.50
2019-03-03T15:22:24.724Z,14.10
2019-03-03T15:24:52.766Z,12.13
2019-03-03T15:27:20.841Z,13.13
2019-03-03T15:29:48.875Z,13.47
2019-03-03T15:32:23.215Z,15.60
2019-03-03T15:34:54.346Z,11.80
2019-03-03T15:37:27.885Z,12.47
2019-03-03T15:39:58.399Z,22.60
2019-03-03T15:42:27.320Z,11.97
2019-03-03T15:45:01.616Z,14.57
2019-03-03T15:47:28.768Z,14.83
2019-03-03T15:49:57.452Z,14.07
2019-03-03T15:52:28.680Z,16.37
2019-03-03T15:54:57.231Z,17.40
2019-03-03T15:57:27.448Z,18.23
2019-03-03T15:59:55.795Z,15.30
2019-03-03T16:02:24.654Z,14.77
2019-03-03T16:04:53.213Z,16.57
2019-03-03T16:07:21.349Z,16.20
2019-03-03T16:09:54.793Z,20.00
2019-03-03T16:12:22.834Z,20.23
2019-03-03T16:14:51.553Z,19.00
2019-03-03T16:17:20.287Z,15.77
2019-03-03T16:19:48.393Z,16.27
2019-03-03T16:22:16.454Z,14.33
2019-03-03T16:24:47.210Z,19.00
2019-03-03T16:27:15.418Z,17.67
2019-03-03T16:29:44.011Z,15.57
2019-03-03T16:32:12.496Z,17.40
2019-03-03T16:34:40.868Z,15.73
2019-03-03T16:37:09.051Z,16.30
2019-03-03T16:39:37.579Z,14.83
2019-03-03T16:42:05.805Z,18.70
2019-03-03T16:44:34.074Z,13.27
2019-03-03T16:47:08.191Z,14.83
2019-03-03T16:49:36.348Z,14.73
2019-03-03T16:52:04.609Z,17.23
2019-03-03T16:54:32.770Z,16.13
2019-03-03T16:57:01.058Z,26.00
2019-03-03T16:59:29.371Z,17.13
2019-03-03T17:01:57.443Z,15.23
2019-03-03T17:04:25.745Z,15.87
2019-03-03T17:06:59.188Z,15.67
2019-03-03T17:09:30.532Z,14.30
2019-03-03T17:11:58.786Z,13.53
2019-03-03T17:14:26.905Z,14.60
2019-03-03T17:16:55.523Z,17.10
2019-03-03T17:19:23.654Z,13.27
2019-03-03T17:21:51.767Z,16.80
2019-03-03T17:24:20.051Z,22.80
2019-03-03T17:26:48.193Z,14.93
2019-03-03T17:29:16.330Z,17.00
2019-03-03T17:31:47.568Z,16.63
2019-03-03T17:34:15.786Z,14.47
2019-03-03T17:36:43.863Z,15.67
2019-03-03T17:39:20.639Z,15.90
2019-03-03T17:41:48.893Z,17.07
2019-03-03T17:44:17.866Z,15.67
2019-03-03T17:46:45.971Z,12.93
2019-03-03T17:49:14.118Z,20.67
2019-03-03T17:51:42.208Z,14.30
2019-03-03T17:54:10.138Z,14.10
2019-03-03T17:56:38.082Z,15.07
2019-03-03T17:59:06.018Z,14.23
2019-03-03T18:01:33.974Z,15.08
2019-03-03T18:04:21.021Z,15.23
2019-03-03T18:06:48.992Z,14.90
2019-03-03T18:09:16.944Z,14.27
2019-03-03T18:11:44.889Z,15.67
2019-03-03T18:14:12.858Z,13.60
2019-03-03T18:16:40.803Z,13.43
2019-03-03T18:19:08.775Z,18.43
2019-03-03T18:21:36.728Z,16.40
2019-03-03T18:24:04.670Z,18.33
2019-03-03T18:26:32.908Z,11.90
2019-03-03T18:29:00.963Z,14.63
2019-03-03T18:31:28.905Z,15.87
2019-03-03T18:33:56.896Z,14.03
2019-03-03T18:36:25.042Z,14.70
2019-03-03T18:38:53.006Z,14.07
2019-03-03T18:41:20.970Z,13.70
2019-03-03T18:43:48.955Z,13.43
2019-03-03T18:46:16.888Z,11.73
2019-03-03T18:48:44.894Z,12.57
2019-03-03T18:51:12.802Z,13.13
2019-03-03T18:53:40.798Z,12.40
2019-03-03T18:56:08.743Z,12.10
2019-03-03T18:58:36.691Z,13.77
2019-03-03T19:01:05.044Z,12.63
2019-03-03T19:03:33.014Z,10.90
2019-03-03T19:06:00.964Z,12.23
2019-03-03T19:08:30.442Z,10.30
2019-03-03T19:10:58.545Z,11.88
2019-03-03T19:13:26.437Z,9.33
2019-03-03T19:15:54.385Z,10.67
2019-03-03T19:18:22.337Z,13.67
2019-03-03T19:20:50.286Z,12.77
2019-03-03T19:23:19.118Z,8.13
2019-03-03T19:25:47.143Z,13.87
2019-03-03T19:28:15.049Z,12.07
2019-03-03T19:30:42.992Z,11.20
2019-03-03T19:33:12.760Z,11.63
2019-03-03T19:35:40.749Z,12.90
2019-03-03T19:38:08.663Z,11.40
2019-03-03T19:40:36.593Z,10.00
2019-03-03T19:43:10.657Z,10.53
2019-03-03T19:45:39.281Z,11.83
2019-03-03T19:48:07.218Z,10.70
2019-03-03T19:50:35.152Z,9.97
2019-03-03T19:53:03.243Z,10.53
2019-03-03T19:55:31.197Z,8.67
2019-03-03T19:57:59.285Z,7.50
2019-03-03T20:00:35.425Z,7.93
2019-03-03T20:03:10.537Z,13.27
2019-03-03T20:05:38.473Z,18.03
2019-03-03T20:08:10.486Z,8.67
2019-03-03T20:10:45.424Z,8.33
2019-03-03T20:13:13.573Z,11.17
2019-03-03T20:15:44.916Z,7.40
2019-03-03T20:18:13.083Z,12.73
2019-03-03T20:20:41.012Z,11.90
2019-03-03T20:23:08.970Z,9.53
2019-03-03T20:25:38.344Z,8.90
2019-03-03T20:28:06.307Z,8.93
2019-03-03T20:30:34.254Z,10.40
2019-03-03T20:33:02.154Z,7.97
2019-03-03T20:35:30.151Z,8.97
2019-03-03T20:37:59.060Z,6.53
2019-03-03T20:40:27.166Z,9.90
2019-03-03T20:42:55.884Z,6.93
2019-03-03T20:45:24.530Z,9.23
2019-03-03T20:47:52.413Z,5.67
2019-03-03T20:50:20.475Z,8.27
2019-03-03T20:52:48.381Z,14.07
2019-03-03T20:55:17.487Z,8.67
2019-03-03T20:57:45.599Z,9.93
2019-03-03T21:00:15.234Z,6.90
2019-03-03T21:02:43.165Z,7.40
2019-03-03T21:05:11.648Z,9.53
2019-03-03T21:07:39.803Z,8.33
2019-03-03T21:10:08.326Z,10.73
2019-03-03T21:12:37.100Z,5.70
2019-03-03T21:15:05.243Z,5.30
2019-03-03T21:17:33.225Z,7.50
2019-03-03T21:20:01.207Z,13.30
2019-03-03T21:22:29.269Z,7.20
2019-03-03T21:24:57.305Z,6.50
2019-03-03T21:27:25.318Z,6.17
2019-03-03T21:29:59.727Z,7.57
2019-03-03T21:32:27.779Z,7.83
2019-03-03T21:34:55.853Z,10.37
2019-03-03T21:37:25.012Z,8.20
2019-03-03T21:39:52.934Z,6.60
2019-03-03T21:42:20.953Z,7.97
2019-03-03T21:44:50.444Z,9.70
2019-03-03T21:47:19.752Z,4.80
2019-03-03T21:49:47.708Z,7.90
2019-03-03T21:52:15.634Z,7.40
2019-03-03T21:54:43.613Z,8.17
2019-03-03T21:57:11.605Z,8.47
2019-03-03T21:59:39.618Z,9.27
2019-03-03T22:02:08.646Z,10.90
2019-03-03T22:04:37.849Z,10.83
2019-03-03T22:07:05.857Z,8.43
2019-03-03T22:09:33.818Z,9.70
2019-03-03T22:12:01.738Z,9.43
2019-03-03T22:14:29.999Z,6.97
2019-03-03T22:16:57.930Z,8.47
2019-03-03T22:19:25.910Z,10.03
2019-03-03T22:21:53.846Z,8.60
2019-03-03T22:24:21.797Z,8.60
2019-03-03T22:26:49.764Z,10.43
2019-03-03T22:29:17.778Z,9.67
2019-03-03T22:31:45.728Z,8.80
2019-03-03T22:34:13.717Z,10.70
2019-03-03T22:36:41.620Z,8.27
2019-03-03T22:39:10.782Z,7.87
2019-03-03T22:41:38.872Z,8.17
2019-03-03T22:44:06.903Z,9.67
2019-03-03T22:46:35.477Z,10.23
2019-03-03T22:49:03.620Z,5.53
2019-03-03T22:51:31.589Z,9.20
2019-03-03T22:53:59.520Z,6.73
2019-03-03T22:56:27.490Z,7.23
2019-03-03T22:58:55.670Z,9.07
2019-03-03T23:01:27.985Z,7.43
2019-03-03T23:04:01.543Z,9.73
2019-03-03T23:06:34.469Z,7.17
2019-03-03T23:09:15.215Z,6.03
2019-03-03T23:11:58.222Z,7.60
2019-03-03T23:14:34.138Z,9.07
2019-03-03T23:17:24.244Z,8.67
2019-03-03T23:20:26.277Z,11.13
2019-03-03T23:23:16.223Z,7.47
2019-03-03T23:25:53.268Z,9.03
2019-03-03T23:28:21.705Z,6.33
2019-03-03T23:30:49.913Z,6.53
2019-03-03T23:33:18.130Z,6.87
2019-03-03T23:35:46.097Z,8.20
2019-03-03T23:38:14.032Z,7.40
2019-03-03T23:40:41.954Z,6.33
2019-03-03T23:43:09.937Z,10.23
2019-03-03T23:45:37.822Z,7.10
2019-03-03T23:48:05.773Z,9.57
2019-03-03T23:50:33.730Z,5.93
2019-03-03T23:53:01.715Z,9.93
2019-03-03T23:55:29.718Z,7.73
2019-03-03T23:57:57.662Z,7.87
